Latest Weather Observations for Esperance Harbour

IDW60801

Issued at 4:02 am WST Saturday 13 February 2016 (issued every 30 minutes, with the page automatically refreshed every 10 minutes)

About weather observations | Map of weather stations | Latest weather observations for WA | Other Formats
Station Details ID: 109504 Name: ESPERANCE NTC AWS Lat: -33.87 Lon: 121.90 Height: 0.0 m
Data from the previous 72 hours. | See also: Recent months for locations in Western Australia
Date/Time
WST
Temp
°C
App
Temp
°C
Dew
Point
Rel
Hum
%
Delta-T
°C
Wind Press
QNH
hPa
Press
MSL
hPa
Rain
since 9 am
mm
Dir
 
Spd
km/h
Gust
km/h
Spd
kts
Gust
kts
13/04:00am 19.9 - - - - - - - - - 1018.9 1018.9 -
13/03:30am 20.1 - - - - - - - - - 1018.8 1018.8 -
13/03:00am 19.9 - - - - - - - - - 1018.5 1018.5 -
13/02:30am 19.9 - - - - - - - - - 1018.3 1018.3 -
13/02:00am 19.6 - - - - - - - - - 1018.2 1018.2 -
13/01:30am 19.6 - - - - - - - - - 1018.4 1018.4 -
13/01:00am 19.4 - - - - - - - - - 1018.3 1018.3 -
13/12:30am 19.7 - - - - - - - - - 1018.3 1018.3 -
13/12:00am 20.2 - - - - - - - - - 1018.5 1018.5 -
 
Date/Time
WST
Temp
°C
App
Temp
°C
Dew
Point
Rel
Hum
%
Delta-T
°C
Wind Press
QNH
hPa
Press
MSL
hPa
Rain
since 9 am
mm
Dir
 
Spd
km/h
Gust
km/h
Spd
kts
Gust
kts
12/11:30pm 20.2 - - - - - - - - - 1018.6 1018.6 -
12/11:00pm 20.2 - - - - - - - - - 1018.6 1018.6 -
12/10:30pm 20.5 - - - - - - - - - 1018.7 1018.7 -
12/10:00pm 20.4 - - - - - - - - - 1018.7 1018.7 -
12/09:30pm 20.4 - - - - - - - - - 1018.8 1018.8 -
12/09:00pm 20.3 - - - - - - - - - 1018.7 1018.7 -
12/08:30pm 20.3 - - - - - - - - - 1018.6 1018.6 -
12/08:00pm 20.1 - - - - - - - - - 1018.4 1018.4 -
12/07:30pm 20.1 - - - - - - - - - 1018.1 1018.1 -
12/07:00pm 20.4 - - - - - - - - - 1017.8 1017.8 -
12/06:30pm 20.8 - - - - - - - - - 1017.6 1017.6 -
12/06:00pm 21.2 - - - - - - - - - 1017.4 1017.4 -
12/05:30pm 21.6 - - - - - - - - - 1017.1 1017.1 -
12/05:00pm 21.9 - - - - - - - - - 1016.7 1016.7 -
12/04:30pm 21.7 - - - - - - - - - 1016.7 1016.7 -
12/04:00pm 21.7 - - - - - - - - - 1016.6 1016.6 -
12/03:30pm 21.8 - - - - - - - - - 1016.5 1016.5 -
12/03:00pm 22.1 - - - - - - - - - 1016.6 1016.6 -
12/02:30pm 21.8 - - - - - - - - - 1016.5 1016.5 -
12/02:00pm 21.9 - - - - - - - - - 1016.4 1016.4 -
12/01:30pm 22.3 - - - - - - - - - 1016.2 1016.2 -
12/01:00pm 22.1 - - - - - - - - - 1016.1 1016.1 -
12/12:30pm 22.6 - - - - - - - - - 1016.0 1016.0 -
12/12:00pm 22.7 - - - - - - - - - 1016.0 1016.0 -
12/11:30am 22.0 - - - - - - - - - 1016.1 1016.1 -
12/11:00am 22.1 - - - - - - - - - 1016.0 1016.0 -
12/10:30am 22.0 - - - - - - - - - 1015.9 1015.9 -
12/10:00am 22.1 - - - - - - - - - 1015.9 1015.9 -
12/09:30am 21.8 - - - - - - - - - 1015.9 1015.9 -
12/09:00am 21.4 - - - - - - - - - 1015.9 1015.9 -
12/08:30am 21.0 - - - - - - - - - 1015.8 1015.8 -
12/08:00am 20.8 - - - - - - - - - 1015.4 1015.4 -
12/07:30am 20.7 - - - - - - - - - 1015.5 1015.5 -
12/07:00am 20.8 - - - - - - - - - 1015.3 1015.3 -
12/06:30am 20.6 - - - - - - - - - 1015.1 1015.1 -
12/06:00am 20.7 - - - - - - - - - 1014.6 1014.6 -
12/05:30am 20.6 - - - - - - - - - 1014.0 1014.0 -
12/05:00am 20.5 - - - - - - - - - 1013.7 1013.7 -
12/04:30am 20.5 - - - - - - - - - 1013.1 1013.1 -
12/04:00am 20.5 - - - - - - - - - 1012.8 1012.8 -
12/03:30am 20.6 - - - - - - - - - 1012.4 1012.4 -
12/03:00am 20.4 - - - - - - - - - 1012.4 1012.4 -
12/02:30am 20.4 - - - - - - - - - 1011.8 1011.8 -
12/02:00am 20.5 - - - - - - - - - 1011.7 1011.7 -
12/01:30am 20.6 - - - - - - - - - 1011.6 1011.6 -
12/01:00am 20.7 - - - - - - - - - 1011.2 1011.2 -
12/12:30am 20.8 - - - - - - - - - 1010.9 1010.9 -
12/12:00am 20.9 - - - - - - - - - 1011.2 1011.2 -
 
Date/Time
WST
Temp
°C
App
Temp
°C
Dew
Point
Rel
Hum
%
Delta-T
°C
Wind Press
QNH
hPa
Press
MSL
hPa
Rain
since 9 am
mm
Dir
 
Spd
km/h
Gust
km/h
Spd
kts
Gust
kts
11/11:30pm 21.1 - - - - - - - - - 1011.4 1011.4 -
11/11:00pm 21.2 - - - - - - - - - 1011.0 1011.0 -
11/10:30pm 21.1 - - - - - - - - - 1011.2 1011.2 -
11/10:00pm 21.4 - - - - - - - - - 1011.4 1011.4 -
11/09:30pm 21.3 - - - - - - - - - 1011.4 1011.4 -
11/09:00pm 21.5 - - - - - - - - - 1011.9 1011.9 -
11/08:30pm 21.5 - - - - - - - - - 1011.3 1011.3 -
11/08:00pm 21.8 - - - - - - - - - 1011.2 1011.2 -
11/07:30pm 22.2 - - - - - - - - - 1010.8 1010.8 -
11/07:00pm 22.8 - - - - - - - - - 1010.7 1010.7 -
11/06:30pm 22.9 - - - - - - - - - 1010.2 1010.2 -
11/06:00pm 23.5 - - - - - - - - - 1010.1 1010.1 -
11/05:30pm 23.9 - - - - - - - - - 1010.0 1010.0 -
11/05:00pm 25.4 - - - - - - - - - 1009.8 1009.8 -
11/04:30pm 29.5 - - - - - - - - - 1009.6 1009.6 -
11/04:00pm 28.8 - - - - - - - - - 1009.7 1009.7 -
11/03:30pm 31.1 - - - - - - - - - 1009.7 1009.7 -
11/03:00pm 28.8 - - - - - - - - - 1009.9 1009.9 -
11/02:30pm 27.3 - - - - - - - - - 1010.2 1010.2 -
11/02:00pm 28.4 - - - - - - - - - 1010.4 1010.4 -
11/01:30pm 28.8 - - - - - - - - - 1010.4 1010.4 -
11/01:00pm 28.6 - - - - - - - - - 1010.4 1010.4 -
11/12:30pm 29.9 - - - - - - - - - 1010.8 1010.8 -
11/12:27pm 28.9 - - - - - - - - - 1010.8 1010.8 -
11/12:17pm 33.9 - - - - - - - - - 1010.8 1010.8 -
11/12:00pm 39.1 - - - - - - - - - 1010.9 1010.9 -
11/11:30am 38.3 - - - - - - - - - 1011.4 1011.4 -
11/11:00am 37.0 - - - - - - - - - 1011.7 1011.7 -
11/10:30am 35.2 - - - - - - - - - 1012.4 1012.4 -
11/10:00am 33.0 - - - - - - - - - 1013.1 1013.1 -
11/09:30am 28.9 - - - - - - - - - 1013.5 1013.5 -
11/09:00am 24.4 - - - - - - - - - 1013.7 1013.7 -
11/08:30am 22.4 - - - - - - - - - 1014.1 1014.1 -
11/08:00am 20.5 - - - - - - - - - 1014.5 1014.5 -
11/07:30am 18.9 - - - - - - - - - 1015.0 1015.0 -
11/07:00am 18.4 - - - - - - - - - 1015.1 1015.1 -
11/06:30am 18.4 - - - - - - - - - 1015.1 1015.1 -
11/06:00am 18.3 - - - - - - - - - 1015.0 1015.0 -
11/05:30am 18.0 - - - - - - - - - 1014.9 1014.9 -
11/05:00am 18.4 - - - - - - - - - 1014.7 1014.7 -
11/04:30am 18.4 - - - - - - - - - 1014.6 1014.6 -
11/04:00am 18.6 - - - - - - - - - 1014.5 1014.5 -
11/03:30am 18.8 - - - - - - - - - 1014.5 1014.5 -
11/03:00am 18.9 - - - - - - - - - 1014.5 1014.5 -
11/02:30am 19.3 - - - - - - - - - 1014.4 1014.4 -
11/02:00am 19.7 - - - - - - - - - 1014.3 1014.3 -
11/01:30am 19.7 - - - - - - - - - 1014.4 1014.4 -
11/01:00am 20.0 - - - - - - - - - 1014.7 1014.7 -
11/12:30am 20.5 - - - - - - - - - 1015.1 1015.1 -
11/12:00am 20.7 - - - - - - - - - 1015.3 1015.3 -
 
Date/Time
WST
Temp
°C
App
Temp
°C
Dew
Point
Rel
Hum
%
Delta-T
°C
Wind Press
QNH
hPa
Press
MSL
hPa
Rain
since 9 am
mm
Dir
 
Spd
km/h
Gust
km/h
Spd
kts
Gust
kts
10/11:30pm 21.1 - - - - - - - - - 1015.4 1015.4 -
10/11:00pm 21.1 - - - - - - - - - 1015.8 1015.8 -
10/10:30pm 21.2 - - - - - - - - - 1016.1 1016.1 -
10/10:00pm 21.3 - - - - - - - - - 1015.7 1015.7 -
10/09:30pm 21.6 - - - - - - - - - 1015.8 1015.8 -
10/09:00pm 21.7 - - - - - - - - - 1015.8 1015.8 -
10/08:30pm 21.7 - - - - - - - - - 1015.2 1015.2 -
10/08:00pm 21.8 - - - - - - - - - 1014.8 1014.8 -
10/07:30pm 22.0 - - - - - - - - - 1014.8 1014.8 -
10/07:00pm 22.4 - - - - - - - - - 1014.7 1014.7 -
10/06:30pm 22.8 - - - - - - - - - 1014.7 1014.7 -
10/06:00pm 23.5 - - - - - - - - - 1014.7 1014.7 -
10/05:30pm 24.0 - - - - - - - - - 1014.7 1014.7 -
10/05:00pm 24.7 - - - - - - - - - 1014.6 1014.6 -
10/04:30pm 24.5 - - - - - - - - - 1014.6 1014.6 -
10/04:00pm 24.3 - - - - - - - - - 1014.5 1014.5 -
10/03:30pm 24.3 - - - - - - - - - 1014.7 1014.7 -
10/03:00pm 23.8 - - - - - - - - - 1014.8 1014.8 -
10/02:30pm 23.7 - - - - - - - - - 1015.1 1015.1 -
10/02:00pm 24.1 - - - - - - - - - 1015.3 1015.3 -
10/01:30pm 23.5 - - - - - - - - - 1015.3 1015.3 -
10/01:00pm 23.2 - - - - - - - - - 1015.7 1015.7 -
10/12:30pm 23.2 - - - - - - - - - 1015.8 1015.8 -
10/12:00pm 23.4 - - - - - - - - - 1016.1 1016.1 -
10/11:30am 23.7 - - - - - - - - - 1016.4 1016.4 -
10/11:00am 23.6 - - - - - - - - - 1016.6 1016.6 -
10/10:30am 24.0 - - - - - - - - - 1016.9 1016.9 -
10/10:00am 23.9 - - - - - - - - - 1017.2 1017.2 -
10/09:30am 23.5 - - - - - - - - - 1017.1 1017.1 -
10/09:00am 23.4 - - - - - - - - - 1017.0 1017.0 -
10/08:30am 21.6 - - - - - - - - - 1017.0 1017.0 -
10/08:00am 21.2 - - - - - - - - - 1017.0 1017.0 -
10/07:30am 20.7 - - - - - - - - - 1016.9 1016.9 -
10/07:00am 19.4 - - - - - - - - - 1016.9 1016.9 -
10/06:30am 18.3 - - - - - - - - - 1016.7 1016.7 -
10/06:00am 18.0 - - - - - - - - - 1016.6 1016.6 -
10/05:30am 19.0 - - - - - - - - - 1016.3 1016.3 -
10/05:00am 20.9 - - - - - - - - - 1015.8 1015.8 -
10/04:30am 20.4 - - - - - - - - - 1015.5 1015.5 -

Other Formats:

Comma delimited format used in spreadsheet applications
http://www.bom.gov.au/fwo/IDW60801/IDW60801.95648.axf

JavaScript Object Notation format (JSON) in row-major order
http://www.bom.gov.au/fwo/IDW60801/IDW60801.95648.json